OJAQ/AQJ METAR and TAF weather

Enter ICAO airport designator
Station Type Date Time Source
OJAQ METAR 2019/07/20 05:00 UTC NOAA

OJAQ 200500Z 36008KT CAVOK 29/13 Q1009 NOSIG


Station Type Date Time Source
OJAQ Decoded METAR 2019/07/20 05:00 UTC NOAA

Aqaba Airport, Jordan (OJAQ) 29-38N 035-01E 51M
Jul 20, 2019 - 01:00 AM EDT / 2019.07.20 0500 UTC
Wind: from the N (360 degrees) at 9 MPH (8 KT):0
Visibility: greater than 7 mile(s):0
Temperature: 84 F (29 C)
Dew Point: 55 F (13 C)
Relative Humidity: 37%
Pressure (altimeter): 29.80 in. Hg (1009 hPa)
ob: OJAQ 200500Z 36008KT CAVOK 29/13 Q1009 NOSIG
cycle: 5

Station Type Date Time Source
OJAQ TAF 2019/07/19 18:24 UTC NOAA

TAF TAF COR OJAQ 191721Z 1918/2024 35012KT CAVOK

Example: see airport list